createdAt,value
2023-02-27T00:00:36.530Z,1.20
2023-02-27T00:03:05.123Z,1.20
2023-02-27T00:05:33.509Z,1.00
2023-02-27T00:08:02.384Z,1.20
2023-02-27T00:10:35.227Z,1.30
2023-02-27T00:13:04.519Z,1.20
2023-02-27T00:15:33.102Z,1.10
2023-02-27T00:20:38.357Z,1.30
2023-02-27T00:23:07.114Z,1.10
2023-02-27T00:25:36.819Z,1.10
2023-02-27T00:28:06.140Z,1.20
2023-02-27T00:30:34.617Z,1.70
2023-02-27T00:33:04.468Z,1.40
2023-02-27T00:35:35.855Z,1.40
2023-02-27T00:38:08.694Z,1.70
2023-02-27T00:40:37.163Z,2.60
2023-02-27T00:43:05.693Z,1.80
2023-02-27T00:45:34.197Z,1.50
2023-02-27T00:48:02.690Z,1.50
2023-02-27T00:50:31.542Z,2.00
2023-02-27T00:53:00.034Z,1.80
2023-02-27T00:55:28.811Z,1.10
2023-02-27T00:57:57.397Z,1.50
2023-02-27T01:00:25.926Z,1.10
2023-02-27T01:02:57.023Z,0.90
2023-02-27T01:05:25.842Z,1.30
2023-02-27T01:07:55.450Z,1.20
2023-02-27T01:10:30.095Z,2.10
2023-02-27T01:12:59.370Z,1.60
2023-02-27T01:15:28.237Z,1.60
2023-02-27T01:17:57.444Z,1.60
2023-02-27T01:20:25.924Z,1.30
2023-02-27T01:22:54.402Z,1.50
2023-02-27T01:25:22.986Z,1.10
2023-02-27T01:27:51.818Z,2.00
2023-02-27T01:30:20.387Z,1.40
2023-02-27T01:32:49.067Z,1.50
2023-02-27T01:35:18.146Z,1.60
2023-02-27T01:37:46.939Z,1.90
2023-02-27T01:40:15.511Z,1.40
2023-02-27T01:42:46.693Z,1.50
2023-02-27T01:45:28.095Z,1.30
2023-02-27T01:48:27.432Z,1.20
2023-02-27T01:51:03.800Z,1.50
2023-02-27T01:53:34.765Z,1.70
2023-02-27T01:56:12.628Z,1.60
2023-02-27T01:58:42.080Z,1.90
2023-02-27T02:01:10.511Z,1.90
2023-02-27T02:03:44.144Z,1.70
2023-02-27T02:06:12.921Z,1.50
2023-02-27T02:08:46.114Z,1.80
2023-02-27T02:11:16.241Z,1.80
2023-02-27T02:13:47.109Z,1.90
2023-02-27T02:16:35.940Z,2.00
2023-02-27T02:19:16.555Z,1.80
2023-02-27T02:21:52.661Z,1.90
2023-02-27T02:24:43.902Z,1.60
2023-02-27T02:27:30.619Z,2.10
2023-02-27T02:30:17.716Z,2.10
2023-02-27T02:33:24.816Z,1.90
2023-02-27T02:36:18.720Z,1.70
2023-02-27T02:38:56.355Z,2.10
2023-02-27T02:41:40.411Z,1.70
2023-02-27T02:44:31.024Z,1.90
2023-02-27T02:47:20.753Z,2.00
2023-02-27T02:50:00.851Z,1.90
2023-02-27T02:52:36.290Z,1.80
2023-02-27T02:55:29.745Z,2.50
2023-02-27T02:58:30.055Z,2.30
2023-02-27T03:01:38.765Z,2.30
2023-02-27T03:04:10.780Z,2.50
2023-02-27T03:06:49.084Z,2.30
2023-02-27T03:09:38.856Z,2.40
2023-02-27T03:12:10.611Z,2.60
2023-02-27T03:14:58.997Z,2.50
2023-02-27T03:17:42.206Z,2.30
2023-02-27T03:20:18.233Z,2.70
2023-02-27T03:22:48.111Z,2.80
2023-02-27T03:25:20.631Z,3.00
2023-02-27T03:27:57.885Z,2.90
2023-02-27T03:30:28.734Z,2.90
2023-02-27T03:35:58.086Z,2.90
2023-02-27T03:38:32.347Z,3.00
2023-02-27T03:41:11.415Z,2.50
2023-02-27T03:43:50.555Z,2.40
2023-02-27T03:46:24.100Z,2.90
2023-02-27T03:48:54.074Z,3.50
2023-02-27T03:51:24.531Z,3.60
2023-02-27T03:54:14.164Z,2.90
2023-02-27T03:57:03.666Z,3.40
2023-02-27T03:59:33.049Z,3.00
2023-02-27T04:02:03.720Z,3.60
2023-02-27T04:04:32.980Z,3.30
2023-02-27T04:07:38.625Z,3.00
2023-02-27T04:10:18.393Z,3.00
2023-02-27T04:13:11.393Z,3.20
2023-02-27T04:16:00.893Z,2.90
2023-02-27T04:18:51.098Z,3.00
2023-02-27T04:21:31.986Z,3.10
2023-02-27T04:24:22.462Z,3.20
2023-02-27T04:26:57.379Z,3.00
2023-02-27T04:29:38.478Z,3.60
2023-02-27T04:32:21.860Z,3.70
2023-02-27T04:34:58.562Z,2.80
2023-02-27T04:37:33.761Z,3.20
2023-02-27T04:40:07.967Z,3.50
2023-02-27T04:42:39.324Z,3.00
2023-02-27T04:45:17.056Z,3.20
2023-02-27T04:47:56.592Z,3.60
2023-02-27T04:50:36.109Z,3.20
2023-02-27T04:53:08.796Z,3.90
2023-02-27T04:55:45.722Z,3.90
2023-02-27T04:58:18.584Z,3.90
2023-02-27T05:00:50.003Z,4.10
2023-02-27T05:03:25.297Z,4.10
2023-02-27T05:05:55.727Z,4.50
2023-02-27T05:08:36.125Z,4.80
2023-02-27T05:11:29.667Z,5.00
2023-02-27T05:14:04.444Z,4.80
2023-02-27T05:16:45.664Z,5.60
2023-02-27T05:19:18.483Z,5.40
2023-02-27T05:22:11.328Z,6.10
2023-02-27T05:24:55.750Z,6.20
2023-02-27T05:27:26.191Z,6.80
2023-02-27T05:29:59.491Z,15.80
2023-02-27T05:32:30.261Z,9.80
2023-02-27T05:35:05.231Z,7.80
2023-02-27T05:37:37.719Z,12.20
2023-02-27T05:40:08.604Z,8.30
2023-02-27T05:42:50.607Z,8.40
2023-02-27T05:45:23.645Z,10.40
2023-02-27T05:47:57.952Z,7.40
2023-02-27T05:50:28.606Z,6.20
2023-02-27T05:52:59.260Z,5.10
2023-02-27T05:55:33.235Z,5.20
2023-02-27T05:58:19.534Z,5.30
2023-02-27T06:00:52.467Z,9.10
2023-02-27T06:03:21.121Z,7.80
2023-02-27T06:05:50.197Z,6.50
2023-02-27T06:08:19.113Z,6.00
2023-02-27T06:10:53.234Z,5.10
2023-02-27T06:13:23.323Z,4.80
2023-02-27T06:15:51.712Z,4.60
2023-02-27T06:18:20.697Z,5.00
2023-02-27T06:20:50.295Z,5.10
2023-02-27T06:23:18.882Z,5.90
2023-02-27T06:25:48.794Z,7.50
2023-02-27T06:28:17.279Z,7.70
2023-02-27T06:30:46.504Z,6.60
2023-02-27T06:33:15.501Z,6.80
2023-02-27T06:35:47.516Z,5.70
2023-02-27T06:38:17.266Z,6.30
2023-02-27T06:40:45.630Z,4.70
2023-02-27T06:43:15.125Z,3.90
2023-02-27T06:45:50.016Z,5.10
2023-02-27T06:48:19.113Z,5.10
2023-02-27T06:50:54.704Z,5.70
2023-02-27T06:53:23.996Z,6.40
2023-02-27T06:55:52.481Z,6.30
2023-02-27T06:58:21.748Z,6.10
2023-02-27T07:00:50.084Z,6.10
2023-02-27T07:03:18.531Z,6.50
2023-02-27T07:05:50.725Z,5.30
2023-02-27T07:08:19.904Z,5.90
2023-02-27T07:10:49.405Z,5.50
2023-02-27T07:13:19.636Z,5.80
2023-02-27T07:15:49.221Z,5.00
2023-02-27T07:18:17.522Z,5.60
2023-02-27T07:20:45.989Z,5.20
2023-02-27T07:23:14.883Z,5.80
2023-02-27T07:25:43.472Z,6.10
2023-02-27T07:28:13.124Z,5.40
2023-02-27T07:30:41.768Z,6.30
2023-02-27T07:33:10.648Z,6.10
2023-02-27T07:35:39.533Z,5.50
2023-02-27T07:38:08.384Z,5.70
2023-02-27T07:40:37.323Z,5.80
2023-02-27T07:43:06.237Z,6.00
2023-02-27T07:45:35.563Z,6.10
2023-02-27T07:48:04.645Z,6.70
2023-02-27T07:50:34.043Z,5.90
2023-02-27T07:53:02.706Z,6.60
2023-02-27T07:55:31.492Z,8.10
2023-02-27T07:58:03.664Z,8.30
2023-02-27T08:00:32.954Z,7.10
2023-02-27T08:03:01.491Z,7.00
2023-02-27T08:05:30.338Z,6.80
2023-02-27T08:07:58.823Z,7.10
2023-02-27T08:10:27.905Z,6.50
2023-02-27T08:12:56.503Z,8.20
2023-02-27T08:15:25.076Z,7.90
2023-02-27T08:17:53.586Z,7.50
2023-02-27T08:20:23.074Z,7.10
2023-02-27T08:22:51.746Z,7.50
2023-02-27T08:25:21.677Z,7.80
2023-02-27T08:27:50.383Z,8.50
2023-02-27T08:30:19.289Z,8.40
2023-02-27T08:32:47.963Z,8.50
2023-02-27T08:35:16.863Z,8.80
2023-02-27T08:37:45.717Z,11.80
2023-02-27T08:40:14.317Z,8.70
2023-02-27T08:42:43.278Z,9.30
2023-02-27T08:45:12.070Z,9.40
2023-02-27T08:47:43.006Z,9.10
2023-02-27T08:50:15.075Z,8.30
2023-02-27T08:52:44.061Z,8.30
2023-02-27T08:55:12.680Z,37.30
2023-02-27T08:57:41.659Z,14.20
2023-02-27T09:00:11.098Z,18.70
2023-02-27T09:02:42.214Z,13.80
2023-02-27T09:05:11.606Z,65.00
2023-02-27T09:07:42.330Z,31.00
2023-02-27T09:10:13.530Z,15.50
2023-02-27T09:12:44.891Z,26.60
2023-02-27T09:15:13.613Z,12.10
2023-02-27T09:17:42.112Z,11.00
2023-02-27T09:20:12.420Z,16.90
2023-02-27T09:22:41.952Z,14.40
2023-02-27T09:25:12.368Z,9.90
2023-02-27T09:27:41.353Z,12.60
2023-02-27T09:30:11.357Z,14.30
2023-02-27T09:32:39.798Z,16.50
2023-02-27T09:35:09.604Z,12.90
2023-02-27T09:37:38.459Z,12.30
2023-02-27T09:40:08.144Z,11.50
2023-02-27T09:42:42.371Z,11.70
2023-02-27T09:45:23.662Z,10.60
2023-02-27T09:47:56.994Z,9.80
2023-02-27T09:50:38.582Z,11.00
2023-02-27T09:53:27.274Z,11.90
2023-02-27T09:55:58.013Z,12.10
2023-02-27T09:58:30.283Z,14.40
2023-02-27T10:01:33.272Z,11.80
2023-02-27T10:04:14.073Z,11.80
2023-02-27T10:06:53.724Z,10.80
2023-02-27T10:09:47.366Z,10.50
2023-02-27T10:12:19.126Z,11.80
2023-02-27T10:14:57.755Z,12.90
2023-02-27T10:22:19.303Z,12.80
2023-02-27T10:24:51.268Z,10.90
2023-02-27T10:27:21.006Z,11.70
2023-02-27T10:29:50.394Z,12.10
2023-02-27T10:32:22.901Z,12.10
2023-02-27T10:35:08.120Z,12.90
2023-02-27T10:37:37.621Z,13.30
2023-02-27T10:40:06.923Z,10.80
2023-02-27T10:42:39.146Z,12.90
2023-02-27T10:45:15.052Z,12.10
2023-02-27T10:47:46.009Z,13.80
2023-02-27T10:50:20.697Z,12.80
2023-02-27T10:52:54.355Z,13.50
2023-02-27T10:55:26.149Z,14.20
2023-02-27T10:57:56.080Z,12.70
2023-02-27T11:00:29.224Z,11.60
2023-02-27T11:02:57.821Z,12.50
2023-02-27T11:05:31.510Z,12.70
2023-02-27T11:08:20.886Z,13.20
2023-02-27T11:11:00.332Z,13.70
2023-02-27T11:13:36.493Z,13.60
2023-02-27T11:16:07.287Z,15.10
2023-02-27T11:18:43.554Z,14.10
2023-02-27T11:21:25.276Z,12.40
2023-02-27T11:24:01.906Z,13.30
2023-02-27T11:26:36.388Z,14.00
2023-02-27T11:29:15.110Z,13.80
2023-02-27T11:32:06.070Z,12.30
2023-02-27T11:34:36.959Z,13.20
2023-02-27T11:37:19.188Z,13.20
2023-02-27T11:39:51.579Z,11.40
2023-02-27T11:42:31.408Z,11.60
2023-02-27T11:46:19.033Z,12.20
2023-02-27T11:48:21.482Z,12.30
2023-02-27T11:51:11.811Z,13.10
2023-02-27T11:54:05.325Z,17.60
2023-02-27T11:56:44.578Z,16.60
2023-02-27T11:59:40.642Z,16.00
2023-02-27T12:02:18.189Z,13.40
2023-02-27T12:04:54.482Z,13.20
2023-02-27T12:07:35.169Z,13.00
2023-02-27T12:10:22.964Z,13.10
2023-02-27T12:13:12.982Z,11.40
2023-02-27T12:15:49.555Z,11.40
2023-02-27T12:18:31.876Z,9.70
2023-02-27T12:21:04.293Z,10.00
2023-02-27T12:23:41.204Z,10.30
2023-02-27T12:26:22.884Z,9.30
2023-02-27T12:28:55.080Z,10.00
2023-02-27T12:34:29.597Z,9.60
2023-02-27T12:37:06.272Z,9.80
2023-02-27T12:39:35.378Z,10.60
2023-02-27T12:42:13.127Z,10.40
2023-02-27T12:44:44.424Z,13.50
2023-02-27T12:47:37.483Z,11.70
2023-02-27T12:50:11.078Z,11.50
2023-02-27T12:52:43.660Z,13.10
2023-02-27T12:55:19.305Z,14.20
2023-02-27T12:58:06.433Z,17.30
2023-02-27T13:00:47.955Z,15.10
2023-02-27T13:03:26.478Z,15.30
2023-02-27T13:06:12.943Z,12.60
2023-02-27T13:09:09.165Z,13.70
2023-02-27T13:11:53.628Z,12.80
2023-02-27T13:14:28.664Z,13.50
2023-02-27T13:17:17.263Z,15.00
2023-02-27T13:19:45.823Z,14.10
2023-02-27T13:22:19.755Z,14.60
2023-02-27T13:24:51.017Z,12.70
2023-02-27T13:27:39.371Z,12.80
2023-02-27T13:30:24.040Z,13.30
2023-02-27T13:33:17.374Z,13.50
2023-02-27T13:36:04.784Z,13.40
2023-02-27T13:38:44.240Z,13.60
2023-02-27T13:41:25.082Z,12.50
2023-02-27T13:44:01.505Z,12.10
2023-02-27T13:46:32.024Z,12.40
2023-02-27T13:49:04.810Z,11.80
2023-02-27T13:51:40.044Z,11.80
2023-02-27T13:54:14.371Z,12.50
2023-02-27T13:56:57.680Z,12.10
2023-02-27T13:59:29.111Z,10.90
2023-02-27T14:02:10.783Z,10.10
2023-02-27T14:04:46.120Z,9.20
2023-02-27T14:07:21.970Z,9.50
2023-02-27T14:09:52.384Z,9.20
2023-02-27T14:12:44.011Z,9.10
2023-02-27T14:15:25.609Z,12.70
2023-02-27T14:18:12.339Z,10.90
2023-02-27T14:20:43.040Z,9.80
2023-02-27T14:23:17.578Z,9.50
2023-02-27T14:25:48.396Z,9.40
2023-02-27T14:28:30.500Z,9.40
2023-02-27T14:31:06.310Z,9.90
2023-02-27T14:33:41.532Z,9.40
2023-02-27T14:36:19.750Z,10.20
2023-02-27T14:38:49.227Z,10.00
2023-02-27T14:41:38.694Z,10.00
2023-02-27T14:44:20.172Z,10.50
2023-02-27T14:46:51.191Z,11.90
2023-02-27T14:49:25.353Z,12.00
2023-02-27T14:51:54.311Z,12.00
2023-02-27T14:54:24.364Z,12.50
2023-02-27T14:57:26.999Z,13.40
2023-02-27T14:59:55.878Z,12.40
2023-02-27T15:02:30.637Z,12.40
2023-02-27T15:05:02.321Z,12.50
2023-02-27T15:07:33.249Z,11.50
2023-02-27T15:10:05.645Z,12.00
2023-02-27T15:12:37.781Z,12.20
2023-02-27T15:15:10.263Z,12.20
2023-02-27T15:17:41.207Z,12.80
2023-02-27T15:20:30.090Z,12.80
2023-02-27T15:23:22.794Z,13.90
2023-02-27T15:25:59.434Z,12.70
2023-02-27T15:28:32.519Z,13.50
2023-02-27T15:31:01.270Z,13.50
2023-02-27T15:33:31.356Z,14.40
2023-02-27T15:36:00.267Z,13.60
2023-02-27T15:38:33.953Z,11.70
2023-02-27T15:41:04.175Z,11.80
2023-02-27T15:43:32.650Z,11.90
2023-02-27T15:46:01.156Z,11.70
2023-02-27T15:48:30.133Z,12.20
2023-02-27T15:50:59.377Z,12.10
2023-02-27T15:53:29.148Z,12.80
2023-02-27T15:55:59.170Z,13.30
2023-02-27T15:58:37.920Z,13.40
2023-02-27T16:01:13.808Z,12.10
2023-02-27T16:03:49.638Z,12.10
2023-02-27T16:06:39.453Z,11.20
2023-02-27T16:09:19.954Z,10.60
2023-02-27T16:11:49.702Z,10.70
2023-02-27T16:14:42.254Z,11.30
2023-02-27T16:17:23.272Z,11.90
2023-02-27T16:19:52.163Z,11.20
2023-02-27T16:22:21.258Z,12.30
2023-02-27T16:24:50.133Z,10.70
2023-02-27T16:27:26.416Z,10.80
2023-02-27T16:29:56.419Z,9.80
2023-02-27T16:32:29.572Z,10.20
2023-02-27T16:35:08.920Z,9.90
2023-02-27T16:37:41.022Z,11.30
2023-02-27T16:40:14.452Z,9.90
2023-02-27T16:42:44.158Z,9.00
2023-02-27T16:45:18.503Z,8.80
2023-02-27T16:47:51.243Z,8.40
2023-02-27T16:50:24.955Z,8.00
2023-02-27T16:52:54.239Z,7.60
2023-02-27T16:55:22.603Z,8.30
2023-02-27T16:57:51.219Z,7.30
2023-02-27T17:00:20.307Z,7.60
2023-02-27T17:02:48.835Z,7.00
2023-02-27T17:05:18.375Z,6.90
2023-02-27T17:07:49.051Z,6.30
2023-02-27T17:10:19.321Z,6.50
2023-02-27T17:12:48.762Z,5.90
2023-02-27T17:15:18.159Z,5.80
2023-02-27T17:17:46.725Z,6.00
2023-02-27T17:20:15.194Z,5.40
2023-02-27T17:22:46.438Z,5.70
2023-02-27T17:25:15.127Z,5.60
2023-02-27T17:27:43.865Z,5.60
2023-02-27T17:30:13.744Z,6.40
2023-02-27T17:32:42.717Z,6.00
2023-02-27T17:35:13.897Z,5.70
2023-02-27T17:37:42.361Z,5.40
2023-02-27T17:40:12.893Z,5.10
2023-02-27T17:42:41.454Z,5.20
2023-02-27T17:45:10.649Z,5.40
2023-02-27T17:47:39.554Z,6.00
2023-02-27T17:50:08.574Z,5.80
2023-02-27T17:52:38.451Z,5.30
2023-02-27T17:55:08.822Z,5.50
2023-02-27T17:57:37.968Z,6.10
2023-02-27T18:00:07.333Z,5.00
2023-02-27T18:02:37.399Z,4.80
2023-02-27T18:05:06.720Z,4.90
2023-02-27T18:07:35.188Z,4.30
2023-02-27T18:10:05.735Z,4.90
2023-02-27T18:12:34.541Z,4.70
2023-02-27T18:15:07.377Z,4.60
2023-02-27T18:20:07.181Z,4.10
2023-02-27T18:22:36.706Z,3.80
2023-02-27T18:25:05.714Z,3.20
2023-02-27T18:27:35.511Z,2.90
2023-02-27T18:30:04.758Z,3.30
2023-02-27T18:32:34.276Z,3.00
2023-02-27T18:35:03.242Z,3.50
2023-02-27T18:37:32.431Z,2.90
2023-02-27T18:40:05.501Z,3.40
2023-02-27T18:42:36.739Z,2.80
2023-02-27T18:45:06.673Z,2.90
2023-02-27T18:47:35.010Z,2.80
2023-02-27T18:50:04.379Z,2.80
2023-02-27T18:52:34.522Z,2.70
2023-02-27T18:55:05.002Z,2.90
2023-02-27T18:57:35.208Z,3.10
2023-02-27T19:00:05.471Z,3.10
2023-02-27T19:02:34.261Z,2.90
2023-02-27T19:05:04.129Z,3.60
2023-02-27T19:07:32.954Z,3.10
2023-02-27T19:10:04.259Z,3.00
2023-02-27T19:12:32.874Z,3.10
2023-02-27T19:15:05.451Z,3.40
2023-02-27T19:17:33.896Z,3.20
2023-02-27T19:20:03.104Z,3.80
2023-02-27T19:22:32.210Z,2.70
2023-02-27T19:25:00.675Z,3.60
2023-02-27T19:27:29.482Z,3.80
2023-02-27T19:30:01.646Z,3.00
2023-02-27T19:32:31.453Z,3.30
2023-02-27T19:34:59.849Z,3.30
2023-02-27T19:37:28.858Z,3.40
2023-02-27T19:40:00.192Z,3.10
2023-02-27T19:42:29.182Z,3.50
2023-02-27T19:44:58.365Z,3.20
2023-02-27T19:47:26.949Z,3.40
2023-02-27T19:49:55.632Z,3.40
2023-02-27T19:52:24.124Z,3.50
2023-02-27T19:54:52.905Z,3.30
2023-02-27T19:57:22.220Z,3.30
2023-02-27T19:59:50.904Z,3.20
2023-02-27T20:02:19.267Z,3.50
2023-02-27T20:04:48.364Z,3.60
2023-02-27T20:07:19.035Z,3.50
2023-02-27T20:09:48.329Z,3.40
2023-02-27T20:12:17.204Z,3.10
2023-02-27T20:22:28.897Z,3.40
2023-02-27T20:24:57.408Z,3.00
2023-02-27T20:27:26.661Z,3.50
2023-02-27T20:29:56.117Z,2.80
2023-02-27T20:32:25.246Z,2.90
2023-02-27T20:34:55.831Z,3.10
2023-02-27T20:37:24.430Z,4.30
2023-02-27T20:39:53.110Z,2.90
2023-02-27T20:42:21.565Z,2.20
2023-02-27T20:44:50.342Z,2.80
2023-02-27T20:47:19.481Z,2.90
2023-02-27T20:49:48.003Z,2.70
2023-02-27T20:52:16.743Z,2.70
2023-02-27T20:54:45.363Z,2.20
2023-02-27T20:57:13.914Z,2.30
2023-02-27T20:59:43.118Z,2.40
2023-02-27T21:02:12.208Z,2.80
2023-02-27T21:04:44.381Z,1.90
2023-02-27T21:07:14.802Z,1.90
2023-02-27T21:09:43.803Z,1.90
2023-02-27T21:12:12.688Z,2.20
2023-02-27T21:14:44.528Z,2.50
2023-02-27T21:17:14.061Z,2.20
2023-02-27T21:19:46.564Z,2.70
2023-02-27T21:22:17.171Z,2.40
2023-02-27T21:24:46.879Z,2.80
2023-02-27T21:27:16.676Z,2.80
2023-02-27T21:29:45.260Z,2.80
2023-02-27T21:32:13.862Z,2.70
2023-02-27T21:34:42.594Z,2.80
2023-02-27T21:37:12.710Z,2.60
2023-02-27T21:39:50.816Z,2.70
2023-02-27T21:42:19.438Z,2.90
2023-02-27T21:44:48.048Z,3.50
2023-02-27T21:47:17.169Z,3.10
2023-02-27T21:49:48.059Z,2.80
2023-02-27T21:52:16.440Z,3.10
2023-02-27T21:54:45.074Z,3.10
2023-02-27T21:57:13.500Z,3.30
2023-02-27T21:59:45.719Z,2.70
2023-02-27T22:02:14.816Z,2.80
2023-02-27T22:04:43.855Z,2.60
2023-02-27T22:07:12.336Z,2.70
2023-02-27T22:09:44.298Z,2.80
2023-02-27T22:12:15.184Z,2.30
2023-02-27T22:14:44.406Z,3.40
2023-02-27T22:17:12.919Z,3.00
2023-02-27T22:19:41.411Z,3.20
2023-02-27T22:22:10.085Z,3.50
2023-02-27T22:24:38.799Z,3.60
2023-02-27T22:27:07.271Z,3.00
2023-02-27T22:29:38.309Z,3.40
2023-02-27T22:32:06.887Z,3.50
2023-02-27T22:34:35.979Z,3.90
2023-02-27T22:37:04.760Z,3.90
2023-02-27T22:42:04.663Z,3.40
2023-02-27T22:44:33.648Z,3.60
2023-02-27T22:47:04.933Z,4.30
2023-02-27T22:49:39.352Z,3.70
2023-02-27T22:52:08.090Z,3.50
2023-02-27T22:54:36.824Z,3.10
2023-02-27T22:57:06.179Z,3.40
2023-02-27T22:59:36.904Z,3.20
2023-02-27T23:02:06.532Z,3.20
2023-02-27T23:04:35.283Z,3.00
2023-02-27T23:07:04.045Z,3.00
2023-02-27T23:09:32.460Z,2.50
2023-02-27T23:12:03.826Z,2.50
2023-02-27T23:14:34.003Z,2.40
2023-02-27T23:17:02.369Z,2.90
2023-02-27T23:19:32.421Z,2.50
2023-02-27T23:22:06.817Z,2.20
2023-02-27T23:24:38.367Z,2.10
2023-02-27T23:27:25.490Z,1.90
2023-02-27T23:29:55.533Z,2.10
2023-02-27T23:32:24.284Z,1.80
2023-02-27T23:34:52.972Z,2.00
2023-02-27T23:37:21.872Z,2.00
2023-02-27T23:39:54.250Z,1.70
2023-02-27T23:42:41.723Z,1.80
2023-02-27T23:45:26.060Z,1.80
2023-02-27T23:47:56.547Z,1.60
2023-02-27T23:50:26.873Z,1.50
2023-02-27T23:52:56.485Z,1.60
2023-02-27T23:55:25.160Z,1.60
2023-02-27T23:57:54.130Z,1.80
